Time;durP1;ratioP1;P1;durP2;ratioP2;P2;SDS_P1;SDS_P2;PMS_P1;PMS_P2;Temp;Humidity;BMP_temperature;BMP_pressure;BME280_temperature;BME280_humidity;BME280_pressure;Samples;Min_cycle;Max_cycle;Signal;HPM_P1;HPM_P2
2023/03/27 00:00:31;;;;;;;6.10;1.63;;;17.30;45.90;;;;;;5154460;27;20294;-78
2023/03/27 00:02:58;;;;;;;2.70;1.48;;;17.30;45.90;;;;;;5154275;27;20298;-78
2023/03/27 00:05:26;;;;;;;2.92;1.48;;;17.40;45.90;;;;;;5153819;27;20223;-76
2023/03/27 00:07:54;;;;;;;2.83;1.20;;;17.40;45.90;;;;;;5154315;27;20622;-78
2023/03/27 00:10:22;;;;;;;2.45;1.48;;;17.40;45.90;;;;;;5154076;27;20420;-78
2023/03/27 00:12:50;;;;;;;3.35;1.42;;;17.30;45.90;;;;;;5153812;27;20701;-77
2023/03/27 00:15:19;;;;;;;5.47;1.50;;;17.30;45.80;;;;;;5153727;27;20236;-77
2023/03/27 00:17:47;;;;;;;3.47;1.67;;;17.30;45.90;;;;;;5154035;27;20211;-76
2023/03/27 00:20:16;;;;;;;3.78;1.42;;;17.30;45.80;;;;;;5154132;27;20184;-77
2023/03/27 00:22:43;;;;;;;3.55;1.42;;;17.30;45.70;;;;;;5153959;27;20207;-78
2023/03/27 00:25:11;;;;;;;4.25;1.65;;;17.40;45.80;;;;;;5153809;27;20265;-78
2023/03/27 00:27:38;;;;;;;3.35;1.52;;;17.30;45.70;;;;;;5153939;27;20219;-77
2023/03/27 00:30:07;;;;;;;3.13;1.60;;;17.30;45.60;;;;;;5153902;27;20216;-78
2023/03/27 00:32:36;;;;;;;2.30;1.50;;;17.30;45.60;;;;;;5153577;27;20207;-77
2023/03/27 00:35:03;;;;;;;4.15;1.50;;;17.30;45.60;;;;;;5153590;27;20184;-77
2023/03/27 00:37:31;;;;;;;4.55;1.63;;;17.30;45.60;;;;;;5153560;27;20237;-72
2023/03/27 00:39:58;;;;;;;2.20;1.30;;;17.30;45.60;;;;;;5154291;27;20234;-78
2023/03/27 00:42:26;;;;;;;2.30;1.40;;;17.30;45.60;;;;;;5153794;27;20211;-77
2023/03/27 00:44:53;;;;;;;3.03;1.40;;;17.30;45.60;;;;;;5153616;27;20226;-74
2023/03/27 00:47:33;;;;;;;4.60;1.58;;;17.30;45.60;;;;;;5154078;27;20219;-77
2023/03/27 00:50:05;;;;;;;6.40;1.80;;;17.30;45.60;;;;;;5157327;27;21183;-76
2023/03/27 00:52:33;;;;;;;3.30;1.50;;;17.30;45.60;;;;;;5157426;27;20243;-77
2023/03/27 00:55:04;;;;;;;2.53;1.33;;;17.30;45.50;;;;;;5157332;27;20196;-75
2023/03/27 00:57:32;;;;;;;3.60;1.60;;;17.30;45.50;;;;;;5157338;27;20207;-78
2023/03/27 01:00:08;;;;;;;4.70;1.45;;;17.30;45.50;;;;;;5157652;27;20212;-78
2023/03/27 01:02:35;;;;;;;2.88;1.45;;;17.20;45.40;;;;;;5157784;27;20275;-78
2023/03/27 01:05:05;;;;;;;3.47;1.42;;;17.20;45.30;;;;;;5156972;27;20235;-78
2023/03/27 01:07:32;;;;;;;2.67;1.50;;;17.20;45.40;;;;;;5157443;27;20219;-78
2023/03/27 01:10:00;;;;;;;2.90;1.55;;;17.30;45.40;;;;;;5157660;27;20254;-77
2023/03/27 01:12:39;;;;;;;3.05;1.63;;;17.20;45.30;;;;;;5157280;27;20211;-76
2023/03/27 01:15:19;;;;;;;3.38;1.52;;;17.30;45.40;;;;;;5156975;27;20195;-76
2023/03/27 01:18:13;;;;;;;3.63;1.73;;;17.20;45.30;;;;;;5156792;27;20211;-78
2023/03/27 01:21:21;;;;;;;3.78;1.58;;;17.20;45.30;;;;;;5157385;27;20260;-78
2023/03/27 01:24:33;;;;;;;4.90;1.60;;;17.20;45.20;;;;;;5106412;27;20215;-78
2023/03/27 01:27:04;;;;;;;1.98;1.25;;;17.20;45.20;;;;;;5157333;27;20208;-75
2023/03/27 01:29:44;;;;;;;2.65;1.58;;;17.20;45.20;;;;;;5157352;27;20275;-73
2023/03/27 01:32:36;;;;;;;3.17;1.50;;;17.20;45.20;;;;;;5156499;27;20208;-77
2023/03/27 01:35:28;;;;;;;6.72;1.73;;;17.20;45.20;;;;;;5156631;27;20188;-73
2023/03/27 01:38:15;;;;;;;3.50;1.38;;;17.20;45.10;;;;;;5110449;27;20215;-78
2023/03/27 01:40:50;;;;;;;2.45;1.40;;;17.20;45.10;;;;;;5156026;27;20599;-77
2023/03/27 01:43:21;;;;;;;3.22;1.27;;;17.20;45.20;;;;;;5156277;27;20267;-76
2023/03/27 01:45:54;;;;;;;3.30;1.55;;;17.20;45.20;;;;;;5156460;27;20668;-78
2023/03/27 01:48:32;;;;;;;5.95;1.55;;;17.20;45.10;;;;;;5156373;27;20302;-71
2023/03/27 01:51:03;;;;;;;4.90;1.90;;;17.20;45.10;;;;;;5156210;27;20696;-78
2023/03/27 01:53:35;;;;;;;4.35;1.52;;;17.20;45.10;;;;;;5156327;27;20906;-77
2023/03/27 01:56:07;;;;;;;2.17;1.50;;;17.20;45.10;;;;;;5156473;27;20249;-77
2023/03/27 01:58:44;;;;;;;2.30;1.50;;;17.20;45.10;;;;;;5156161;27;20224;-76
2023/03/27 02:01:17;;;;;;;6.75;1.50;;;17.20;45.10;;;;;;5156564;27;20190;-76
2023/03/27 02:03:48;;;;;;;3.92;1.67;;;17.20;45.10;;;;;;5156727;27;20296;-78
2023/03/27 02:06:18;;;;;;;3.85;1.63;;;17.20;45.10;;;;;;5155979;27;20231;-78
2023/03/27 02:08:49;;;;;;;3.58;1.40;;;17.20;45.00;;;;;;5156346;27;20289;-77
2023/03/27 02:11:17;;;;;;;3.95;1.60;;;17.20;45.70;;;;;;5155771;27;20576;-78
2023/03/27 02:13:49;;;;;;;2.33;1.40;;;17.20;45.10;;;;;;5156291;27;20211;-78
2023/03/27 02:16:19;;;;;;;3.13;1.40;;;17.20;45.00;;;;;;5156105;27;20255;-77
2023/03/27 02:18:53;;;;;;;5.15;1.83;;;17.20;45.00;;;;;;5156046;27;20747;-77
2023/03/27 02:21:22;;;;;;;2.72;1.25;;;17.10;45.00;;;;;;5155581;27;20188;-77
2023/03/27 02:23:49;;;;;;;3.90;1.50;;;17.20;45.00;;;;;;5156143;27;20216;-78
2023/03/27 02:26:18;;;;;;;3.53;1.50;;;17.20;44.90;;;;;;5156066;27;20555;-78
2023/03/27 02:29:15;;;;;;;6.80;1.50;;;17.10;44.90;;;;;;5155945;27;20552;-78
2023/03/27 02:31:57;;;;;;;2.42;1.50;;;17.10;44.80;;;;;;5152047;27;20904;-78
2023/03/27 02:34:55;;;;;;;2.20;1.33;;;17.10;44.80;;;;;;5155411;27;20240;-78
2023/03/27 02:37:32;;;;;;;4.60;1.50;;;17.20;44.90;;;;;;5155358;27;20302;-78
2023/03/27 02:40:12;;;;;;;4.63;1.58;;;17.10;44.90;;;;;;5155354;27;20637;-78
2023/03/27 02:42:53;;;;;;;1.92;1.58;;;17.20;44.90;;;;;;5155165;27;20215;-75
2023/03/27 02:45:27;;;;;;;3.50;1.80;;;17.10;44.80;;;;;;5155193;27;20641;-78
2023/03/27 02:48:00;;;;;;;2.92;1.80;;;17.10;44.80;;;;;;5155438;27;20215;-78
2023/03/27 02:50:31;;;;;;;7.10;1.58;;;17.10;44.80;;;;;;5155476;27;20654;-78
2023/03/27 02:53:02;;;;;;;2.33;1.75;;;17.10;44.80;;;;;;5154829;27;20774;-77
2023/03/27 02:55:33;;;;;;;2.70;1.25;;;17.10;44.70;;;;;;5154977;27;20184;-77
2023/03/27 02:58:05;;;;;;;5.93;2.00;;;17.10;44.80;;;;;;5155226;27;20211;-77
2023/03/27 03:00:38;;;;;;;2.13;1.52;;;17.10;44.80;;;;;;5154858;27;20192;-71
2023/03/27 03:03:12;;;;;;;4.03;1.67;;;17.10;44.70;;;;;;5155147;27;20569;-78
2023/03/27 03:05:40;;;;;;;4.70;1.70;;;17.10;44.80;;;;;;5154798;27;20736;-78
2023/03/27 03:08:09;;;;;;;2.70;1.50;;;17.10;44.70;;;;;;5155079;27;20314;-77
2023/03/27 03:10:37;;;;;;;2.60;1.20;;;17.10;44.70;;;;;;5153896;27;20250;-77
2023/03/27 03:13:05;;;;;;;3.72;1.75;;;17.10;44.70;;;;;;5155163;27;20211;-77
2023/03/27 03:15:32;;;;;;;4.80;1.60;;;17.10;44.70;;;;;;5155080;27;20180;-77
2023/03/27 03:18:00;;;;;;;3.13;1.70;;;17.10;44.70;;;;;;5154512;27;20215;-78
2023/03/27 03:20:28;;;;;;;2.58;1.40;;;17.10;44.60;;;;;;5154856;27;20221;-77
2023/03/27 03:22:56;;;;;;;2.55;1.70;;;17.10;44.70;;;;;;5154390;27;20299;-78
2023/03/27 03:25:24;;;;;;;2.72;1.63;;;17.10;44.70;;;;;;5154322;27;20190;-77
2023/03/27 03:27:56;;;;;;;3.63;1.50;;;17.10;44.70;;;;;;5154535;27;20585;-77
2023/03/27 03:30:26;;;;;;;3.72;1.85;;;17.10;44.70;;;;;;5154929;27;20298;-77
2023/03/27 03:32:53;;;;;;;4.78;1.90;;;17.10;44.60;;;;;;5154530;27;20668;-78
2023/03/27 03:35:21;;;;;;;2.42;1.40;;;17.10;44.60;;;;;;5154282;27;20274;-78
2023/03/27 03:37:49;;;;;;;3.13;1.50;;;17.10;44.70;;;;;;5154577;27;20211;-77
2023/03/27 03:40:17;;;;;;;4.13;1.80;;;17.10;44.60;;;;;;5154470;27;20608;-77
2023/03/27 03:42:45;;;;;;;3.42;1.48;;;17.10;44.70;;;;;;5154326;27;20212;-76
2023/03/27 03:45:12;;;;;;;3.70;1.60;;;17.00;44.50;;;;;;5154433;27;20192;-75
2023/03/27 03:47:41;;;;;;;3.47;1.73;;;17.10;44.60;;;;;;5154621;27;20268;-77
2023/03/27 03:50:08;;;;;;;1.48;1.20;;;17.10;44.60;;;;;;5154309;27;20257;-77
2023/03/27 03:52:36;;;;;;;2.42;1.40;;;17.10;44.60;;;;;;5154251;27;20272;-77
2023/03/27 03:55:04;;;;;;;4.03;1.35;;;17.00;44.40;;;;;;5154269;27;20190;-76
2023/03/27 03:57:32;;;;;;;3.15;1.70;;;17.00;44.60;;;;;;5153938;27;20397;-70
2023/03/27 03:59:59;;;;;;;4.10;1.65;;;17.00;44.50;;;;;;5154115;27;20530;-77
2023/03/27 04:02:29;;;;;;;4.07;1.95;;;17.00;44.40;;;;;;5154463;27;20211;-78
2023/03/27 04:04:58;;;;;;;2.80;1.50;;;17.00;44.50;;;;;;5153578;27;20226;-78
2023/03/27 04:07:30;;;;;;;1.85;1.27;;;17.00;45.10;;;;;;5154229;27;20212;-77
2023/03/27 04:09:58;;;;;;;3.03;1.38;;;17.00;44.40;;;;;;5153891;27;20184;-78
2023/03/27 04:12:26;;;;;;;2.95;1.52;;;17.00;44.40;;;;;;5153715;27;20231;-77
2023/03/27 04:14:53;;;;;;;3.28;1.50;;;17.00;44.50;;;;;;5154005;27;20232;-78
2023/03/27 04:17:21;;;;;;;3.35;1.75;;;17.00;44.50;;;;;;5153758;27;20187;-76
2023/03/27 04:19:49;;;;;;;3.30;1.58;;;17.00;44.40;;;;;;5154268;27;20196;-78
2023/03/27 04:22:17;;;;;;;2.60;1.65;;;17.00;44.40;;;;;;5155968;27;20649;-78
2023/03/27 04:24:44;;;;;;;2.58;1.70;;;17.00;44.40;;;;;;5158251;27;20187;-78
2023/03/27 04:27:12;;;;;;;5.70;1.80;;;17.00;44.40;;;;;;5158240;27;20266;-76
2023/03/27 04:29:42;;;;;;;3.17;1.45;;;17.00;44.40;;;;;;5157674;27;20613;-77
2023/03/27 04:32:09;;;;;;;2.38;1.50;;;17.00;45.10;;;;;;5157991;27;20211;-78
2023/03/27 04:34:39;;;;;;;2.53;1.45;;;17.00;44.40;;;;;;5158388;27;20267;-76
2023/03/27 04:37:06;;;;;;;3.70;1.50;;;17.00;44.40;;;;;;5158022;27;20187;-78
2023/03/27 04:39:38;;;;;;;4.00;1.60;;;17.00;44.40;;;;;;5157950;27;20210;-77
2023/03/27 04:42:06;;;;;;;3.20;1.73;;;17.00;44.40;;;;;;5157789;27;20187;-77
2023/03/27 04:44:34;;;;;;;2.50;1.40;;;17.00;44.40;;;;;;5157595;27;20198;-78
2023/03/27 04:47:01;;;;;;;3.50;1.40;;;17.00;45.00;;;;;;5158092;27;20226;-79
2023/03/27 04:49:28;;;;;;;3.47;1.45;;;17.00;44.40;;;;;;5158012;27;20219;-78
2023/03/27 04:51:56;;;;;;;3.63;1.40;;;17.00;44.40;;;;;;5157305;27;20623;-78
2023/03/27 04:54:23;;;;;;;2.75;1.52;;;17.00;44.40;;;;;;5157479;27;20222;-76
2023/03/27 04:56:52;;;;;;;5.22;1.60;;;17.10;44.40;;;;;;5157293;27;20594;-78
2023/03/27 04:59:20;;;;;;;3.78;1.90;;;17.10;44.50;;;;;;5157463;27;20214;-78
2023/03/27 05:01:49;;;;;;;3.35;1.58;;;17.10;44.40;;;;;;5157399;27;20246;-78
2023/03/27 05:04:16;;;;;;;2.95;1.23;;;17.10;44.40;;;;;;5157397;27;20314;-77
2023/03/27 05:06:44;;;;;;;3.35;1.63;;;17.20;44.40;;;;;;5157471;27;20203;-77
2023/03/27 05:09:11;;;;;;;3.95;1.70;;;17.20;44.40;;;;;;5157392;27;20220;-78
2023/03/27 05:11:38;;;;;;;2.03;1.40;;;17.20;44.40;;;;;;5156874;27;20719;-78
2023/03/27 05:14:06;;;;;;;4.85;1.85;;;17.20;44.40;;;;;;5157167;27;20216;-71
2023/03/27 05:16:34;;;;;;;5.65;1.40;;;17.30;44.50;;;;;;5157303;27;20184;-77
2023/03/27 05:19:03;;;;;;;3.53;1.70;;;17.30;44.50;;;;;;5156920;27;20216;-72
2023/03/27 05:21:30;;;;;;;3.25;1.35;;;17.30;44.50;;;;;;5157320;27;20657;-78
2023/03/27 05:23:57;;;;;;;2.53;1.65;;;17.30;44.50;;;;;;5156932;27;20265;-78
2023/03/27 05:26:24;;;;;;;3.20;1.70;;;17.30;44.50;;;;;;5156819;27;20248;-78
2023/03/27 05:28:54;;;;;;;3.03;1.58;;;17.30;44.50;;;;;;5156630;27;20215;-74
2023/03/27 05:31:23;;;;;;;4.20;1.70;;;17.40;44.60;;;;;;5156881;27;20211;-78
2023/03/27 05:33:51;;;;;;;3.35;1.70;;;17.40;44.50;;;;;;5155878;27;20215;-78
2023/03/27 05:36:18;;;;;;;3.53;1.63;;;17.40;44.60;;;;;;5156568;27;20192;-78
2023/03/27 05:38:46;;;;;;;2.83;1.70;;;17.50;44.60;;;;;;5157273;27;20220;-78
2023/03/27 05:41:14;;;;;;;3.50;1.30;;;17.50;44.60;;;;;;5157028;27;20184;-71
2023/03/27 05:43:44;;;;;;;2.08;1.50;;;17.50;44.70;;;;;;5156870;27;20218;-79
2023/03/27 05:46:11;;;;;;;2.25;1.50;;;17.50;44.60;;;;;;5156267;27;20196;-73
2023/03/27 05:48:40;;;;;;;2.17;1.48;;;17.50;44.60;;;;;;5156534;27;20222;-78
2023/03/27 05:51:09;;;;;;;4.57;1.80;;;17.50;44.60;;;;;;5156572;27;20212;-78
2023/03/27 05:53:38;;;;;;;2.10;1.48;;;17.60;44.80;;;;;;5156911;27;20215;-78
2023/03/27 05:56:06;;;;;;;2.13;1.40;;;17.50;44.60;;;;;;5156835;27;20303;-78
2023/03/27 05:58:36;;;;;;;2.83;1.80;;;17.60;44.80;;;;;;5156235;27;20245;-72
2023/03/27 06:01:03;;;;;;;3.05;1.60;;;17.60;44.70;;;;;;5156436;27;20188;-75
2023/03/27 06:03:34;;;;;;;3.28;1.70;;;17.60;44.70;;;;;;5156169;27;20211;-79
2023/03/27 06:06:07;;;;;;;3.53;1.70;;;17.60;44.70;;;;;;5155753;27;20231;-78
2023/03/27 06:08:35;;;;;;;2.78;1.80;;;17.70;44.80;;;;;;5156278;27;20216;-78
2023/03/27 06:11:08;;;;;;;2.17;1.42;;;17.70;44.80;;;;;;5155834;27;20184;-75
2023/03/27 06:13:35;;;;;;;3.05;1.50;;;17.70;44.70;;;;;;5156593;27;20258;-77
2023/03/27 06:16:03;;;;;;;2.15;1.25;;;17.70;44.60;;;;;;5155720;27;20648;-75
2023/03/27 06:18:31;;;;;;;2.60;1.38;;;17.70;44.70;;;;;;5155867;27;20749;-78
2023/03/27 06:20:58;;;;;;;4.18;1.73;;;17.70;44.60;;;;;;5155962;27;20188;-79
2023/03/27 06:23:27;;;;;;;2.13;1.48;;;17.70;44.50;;;;;;5155862;27;20222;-75
2023/03/27 06:25:54;;;;;;;3.65;1.48;;;17.70;44.50;;;;;;5155861;27;20195;-77
2023/03/27 06:28:21;;;;;;;4.72;1.80;;;17.80;44.60;;;;;;5156265;27;20232;-77
2023/03/27 06:30:49;;;;;;;4.15;1.70;;;17.70;44.40;;;;;;5156042;27;20244;-73
2023/03/27 06:33:17;;;;;;;2.92;1.70;;;17.80;44.60;;;;;;5155405;27;20235;-78
2023/03/27 06:35:45;;;;;;;5.75;1.48;;;17.90;44.60;;;;;;5155422;27;20680;-78
2023/03/27 06:38:14;;;;;;;3.08;1.40;;;17.80;44.50;;;;;;5155603;27;20298;-78
2023/03/27 06:40:43;;;;;;;3.40;1.75;;;17.90;44.60;;;;;;5155728;27;20216;-78
2023/03/27 06:43:12;;;;;;;2.33;1.60;;;17.90;44.60;;;;;;5155826;27;20211;-77
2023/03/27 06:45:43;;;;;;;6.90;2.08;;;17.90;44.50;;;;;;5154512;27;20620;-78
2023/03/27 06:48:11;;;;;;;4.00;1.75;;;17.90;44.50;;;;;;5155224;27;20219;-74
2023/03/27 06:50:39;;;;;;;2.63;1.73;;;17.90;44.50;;;;;;5155271;27;20233;-78
2023/03/27 06:53:06;;;;;;;4.43;1.70;;;17.90;44.50;;;;;;5155432;27;20227;-78
2023/03/27 06:55:35;;;;;;;3.75;1.80;;;18.00;44.60;;;;;;5155332;27;20215;-78
2023/03/27 06:58:04;;;;;;;2.45;1.45;;;17.90;44.50;;;;;;5155242;27;20234;-78
2023/03/27 07:00:34;;;;;;;5.32;1.83;;;17.90;44.50;;;;;;5155107;27;20240;-77
2023/03/27 07:03:04;;;;;;;4.13;1.92;;;17.90;44.50;;;;;;5155603;27;20276;-78
2023/03/27 07:05:35;;;;;;;2.55;1.58;;;18.00;44.60;;;;;;5155148;27;20600;-79
2023/03/27 07:08:04;;;;;;;2.95;1.90;;;18.00;44.50;;;;;;5155025;27;20235;-75
2023/03/27 07:10:32;;;;;;;3.17;1.95;;;18.00;44.50;;;;;;5154509;27;20202;-78
2023/03/27 07:12:59;;;;;;;2.92;1.95;;;18.00;44.50;;;;;;5155008;27;20588;-78
2023/03/27 07:15:28;;;;;;;5.13;1.73;;;18.00;44.50;;;;;;5155001;27;20188;-78
2023/03/27 07:17:56;;;;;;;3.70;1.95;;;18.00;44.50;;;;;;5154851;27;20207;-78
2023/03/27 07:20:26;;;;;;;5.30;1.90;;;18.00;44.50;;;;;;5154449;27;20672;-71
2023/03/27 07:22:54;;;;;;;4.95;2.13;;;18.00;44.50;;;;;;5155044;27;20211;-78
2023/03/27 07:25:21;;;;;;;3.42;1.83;;;18.10;44.60;;;;;;5155232;27;20641;-78
2023/03/27 07:27:48;;;;;;;6.43;2.00;;;18.10;44.60;;;;;;5154677;27;20230;-73
2023/03/27 07:30:16;;;;;;;3.17;2.05;;;18.10;44.60;;;;;;5154320;27;20187;-77
2023/03/27 07:32:45;;;;;;;3.95;2.00;;;18.10;44.60;;;;;;5154568;27;20238;-78
2023/03/27 07:35:13;;;;;;;5.82;2.10;;;18.10;44.60;;;;;;5154520;27;20184;-78
2023/03/27 07:37:41;;;;;;;4.28;2.30;;;18.10;44.60;;;;;;5154709;27;20180;-78
2023/03/27 07:40:12;;;;;;;4.05;2.45;;;18.10;44.60;;;;;;5154364;27;20191;-76
2023/03/27 07:42:43;;;;;;;4.38;2.20;;;18.10;44.60;;;;;;5154199;27;20191;-78
2023/03/27 07:45:12;;;;;;;4.93;1.90;;;18.10;44.60;;;;;;5154197;27;20566;-78
2023/03/27 07:47:40;;;;;;;5.13;2.15;;;18.10;44.60;;;;;;5154526;27;20191;-78
2023/03/27 07:50:10;;;;;;;3.58;2.00;;;18.10;44.60;;;;;;5153997;27;20236;-78
2023/03/27 07:52:42;;;;;;;5.75;2.22;;;18.20;44.70;;;;;;5154195;27;20215;-78
2023/03/27 07:55:11;;;;;;;5.15;2.20;;;18.20;44.60;;;;;;5153979;27;20188;-77
2023/03/27 07:57:40;;;;;;;4.50;2.13;;;18.20;44.60;;;;;;5153473;27;20184;-78
2023/03/27 08:00:11;;;;;;;4.15;2.33;;;18.20;44.60;;;;;;5154108;27;20210;-77
2023/03/27 08:02:39;;;;;;;3.88;2.10;;;18.20;44.50;;;;;;5154451;27;20199;-78
2023/03/27 08:05:10;;;;;;;3.20;2.05;;;18.20;44.50;;;;;;5154027;27;20234;-78
2023/03/27 08:07:39;;;;;;;4.32;2.40;;;18.20;44.50;;;;;;5154145;27;20180;-78
2023/03/27 08:10:08;;;;;;;4.82;1.98;;;18.20;44.50;;;;;;5153768;27;20199;-71
2023/03/27 08:12:35;;;;;;;3.75;2.22;;;18.20;44.50;;;;;;5153999;27;20237;-78
2023/03/27 08:15:03;;;;;;;4.10;2.30;;;18.20;44.50;;;;;;5153672;27;20645;-78
2023/03/27 08:17:32;;;;;;;3.08;2.00;;;18.20;44.50;;;;;;5153996;27;20271;-78
2023/03/27 08:20:00;;;;;;;3.60;2.00;;;18.30;44.50;;;;;;5153967;27;20195;-78
2023/03/27 08:22:29;;;;;;;5.18;2.10;;;18.30;44.50;;;;;;5153542;27;20270;-78
2023/03/27 08:24:57;;;;;;;3.92;2.28;;;18.30;44.50;;;;;;5154032;27;20191;-78
2023/03/27 08:27:24;;;;;;;3.25;1.88;;;18.30;44.40;;;;;;5153559;27;20638;-78
2023/03/27 08:29:52;;;;;;;4.20;2.08;;;18.20;44.30;;;;;;5154028;27;20202;-78
2023/03/27 08:32:19;;;;;;;5.25;2.38;;;18.30;45.10;;;;;;5153433;27;20219;-78
2023/03/27 08:34:46;;;;;;;3.95;2.03;;;18.30;44.40;;;;;;5153518;27;20772;-73
2023/03/27 08:37:13;;;;;;;4.63;2.20;;;18.30;44.40;;;;;;5153593;27;20183;-78
2023/03/27 08:39:42;;;;;;;4.15;1.92;;;18.30;44.30;;;;;;5154092;27;20579;-75
2023/03/27 08:42:16;;;;;;;4.18;2.00;;;18.30;44.30;;;;;;5153692;27;20188;-78
2023/03/27 08:44:43;;;;;;;5.28;2.30;;;18.30;44.40;;;;;;5153879;27;20216;-79
2023/03/27 08:47:16;;;;;;;4.25;1.77;;;18.30;44.30;;;;;;5153787;27;20188;-78
2023/03/27 08:49:49;;;;;;;3.83;1.90;;;18.30;44.30;;;;;;5154064;27;20215;-77
2023/03/27 08:52:19;;;;;;;3.78;2.10;;;18.30;44.30;;;;;;5153899;27;20310;-74
2023/03/27 08:54:57;;;;;;;5.32;2.08;;;18.30;44.30;;;;;;5153884;27;20222;-76
2023/03/27 08:57:27;;;;;;;6.13;2.20;;;18.30;44.30;;;;;;5154004;27;20198;-75
2023/03/27 08:59:58;;;;;;;3.88;2.30;;;18.30;44.30;;;;;;5153498;27;20622;-77
2023/03/27 09:02:33;;;;;;;11.60;2.60;;;18.30;44.30;;;;;;5153231;27;20721;-79
2023/03/27 09:05:07;;;;;;;10.43;2.00;;;18.40;44.80;;;;;;5153475;27;20226;-81
2023/03/27 09:07:41;;;;;;;6.22;2.55;;;18.40;44.30;;;;;;5153068;27;20539;-79
2023/03/27 09:10:17;;;;;;;4.75;2.33;;;18.50;44.30;;;;;;5156966;27;20189;-80
2023/03/27 09:12:57;;;;;;;4.05;2.00;;;18.50;44.20;;;;;;5156919;27;20301;-75
2023/03/27 09:15:28;;;;;;;5.97;2.20;;;18.50;44.40;;;;;;5157008;27;20195;-81
2023/03/27 09:18:00;;;;;;;4.10;1.92;;;18.50;45.50;;;;;;5157075;27;20294;-74
2023/03/27 09:20:34;;;;;;;5.85;2.03;;;18.50;48.70;;;;;;5156856;27;20195;-81
2023/03/27 09:23:09;;;;;;;4.68;2.00;;;18.50;48.80;;;;;;5156703;27;20215;-80
2023/03/27 09:25:41;;;;;;;5.97;2.10;;;18.50;48.30;;;;;;5156778;27;20184;-78
2023/03/27 09:28:19;;;;;;;4.38;1.90;;;18.50;47.50;;;;;;5157266;27;20216;-79
2023/03/27 09:30:47;;;;;;;8.27;1.70;;;18.50;47.10;;;;;;5157064;27;20202;-78
2023/03/27 09:33:14;;;;;;;6.95;1.92;;;18.50;46.90;;;;;;5156684;27;20227;-79
2023/03/27 09:35:42;;;;;;;5.70;1.98;;;18.50;46.90;;;;;;5156902;27;20183;-79
2023/03/27 09:38:24;;;;;;;5.00;1.85;;;18.50;46.80;;;;;;5156511;27;20719;-79
2023/03/27 09:40:57;;;;;;;6.82;2.03;;;18.50;47.10;;;;;;5156829;27;20266;-79
2023/03/27 09:43:28;;;;;;;3.75;2.00;;;18.50;46.90;;;;;;5156372;27;20243;-78
2023/03/27 09:45:57;;;;;;;3.47;1.80;;;18.50;46.80;;;;;;5156788;27;20196;-79
2023/03/27 09:48:35;;;;;;;4.00;1.92;;;18.50;46.80;;;;;;5156981;27;20711;-79
2023/03/27 09:51:04;;;;;;;3.10;1.65;;;18.50;46.70;;;;;;5156643;27;20187;-79
2023/03/27 09:53:31;;;;;;;3.67;1.63;;;18.50;46.60;;;;;;5156609;27;20235;-79
2023/03/27 09:56:02;;;;;;;4.50;1.95;;;18.40;46.50;;;;;;5156161;27;20194;-78
2023/03/27 09:58:34;;;;;;;4.45;1.98;;;18.50;46.40;;;;;;5156249;27;20685;-78
2023/03/27 10:01:12;;;;;;;4.22;1.80;;;18.50;46.40;;;;;;5156402;27;20184;-78
2023/03/27 10:03:42;;;;;;;4.18;1.83;;;18.50;46.30;;;;;;5156591;27;20215;-78
2023/03/27 10:06:13;;;;;;;4.10;2.17;;;18.50;46.20;;;;;;5156026;27;20219;-78
2023/03/27 10:08:42;;;;;;;2.67;1.73;;;18.50;46.20;;;;;;5156511;27;20215;-71
2023/03/27 10:11:16;;;;;;;2.55;1.48;;;18.40;46.00;;;;;;5155751;27;20275;-78
2023/03/27 10:13:48;;;;;;;4.85;1.60;;;18.50;46.00;;;;;;5156112;27;20295;-78
2023/03/27 10:16:17;;;;;;;2.13;1.40;;;18.40;45.90;;;;;;5156277;27;20188;-78
2023/03/27 10:18:46;;;;;;;2.05;1.63;;;18.40;45.80;;;;;;5156147;27;20219;-77
2023/03/27 10:21:20;;;;;;;5.15;1.83;;;18.40;45.70;;;;;;5155956;27;20641;-78
2023/03/27 10:23:50;;;;;;;2.83;1.50;;;18.40;45.60;;;;;;5155947;27;20220;-78
2023/03/27 10:26:21;;;;;;;2.22;1.80;;;18.40;45.60;;;;;;5155909;27;20240;-78
2023/03/27 10:28:50;;;;;;;5.50;2.13;;;18.40;45.50;;;;;;5155556;27;20215;-78
2023/03/27 10:31:29;;;;;;;2.75;1.67;;;18.40;45.50;;;;;;5155480;27;20673;-78
2023/03/27 10:33:57;;;;;;;6.30;1.70;;;18.40;45.40;;;;;;5155361;27;20608;-77
2023/03/27 10:36:26;;;;;;;4.82;2.05;;;18.40;45.40;;;;;;5155513;27;20179;-78
2023/03/27 10:38:57;;;;;;;5.95;2.00;;;18.40;45.40;;;;;;5155737;27;20216;-78
2023/03/27 10:41:28;;;;;;;4.05;2.10;;;18.40;45.20;;;;;;5155860;27;20195;-78
2023/03/27 10:43:56;;;;;;;6.72;2.53;;;18.40;45.10;;;;;;5155431;27;20711;-78
2023/03/27 10:46:26;;;;;;;4.03;1.80;;;18.40;45.10;;;;;;5155702;27;20280;-76
2023/03/27 10:49:01;;;;;;;2.50;1.52;;;18.40;45.10;;;;;;5155085;27;20298;-78
2023/03/27 10:51:35;;;;;;;2.42;1.80;;;18.40;45.00;;;;;;5155261;27;20713;-78
2023/03/27 10:54:09;;;;;;;1.92;1.60;;;18.40;45.00;;;;;;5154960;27;20231;-79
2023/03/27 10:56:48;;;;;;;2.53;1.50;;;18.40;44.90;;;;;;5154968;27;20228;-78
2023/03/27 10:59:21;;;;;;;5.53;1.88;;;18.40;44.90;;;;;;5155295;27;20211;-78
2023/03/27 11:01:53;;;;;;;3.00;1.70;;;18.40;44.90;;;;;;5155167;27;20188;-78
2023/03/27 11:04:24;;;;;;;3.65;2.30;;;18.40;44.90;;;;;;5155039;27;20223;-79
2023/03/27 11:06:57;;;;;;;5.70;1.90;;;18.40;44.90;;;;;;5154816;27;20184;-78
2023/03/27 11:09:29;;;;;;;3.88;1.90;;;18.40;44.90;;;;;;5154772;27;20633;-78
2023/03/27 11:12:03;;;;;;;3.58;2.00;;;18.40;44.90;;;;;;5155008;27;20207;-79
2023/03/27 11:14:38;;;;;;;5.18;2.08;;;18.40;44.90;;;;;;5155152;27;20223;-78
2023/03/27 11:17:06;;;;;;;3.20;2.05;;;18.40;44.90;;;;;;5155108;27;20191;-79
2023/03/27 11:19:40;;;;;;;3.13;2.08;;;18.40;44.90;;;;;;5154939;27;20631;-78
2023/03/27 11:22:12;;;;;;;4.68;2.05;;;18.40;44.90;;;;;;5154493;27;20184;-78
2023/03/27 11:24:46;;;;;;;6.93;2.00;;;18.40;44.80;;;;;;5154827;27;20689;-78
2023/03/27 11:27:19;;;;;;;4.15;1.80;;;18.40;44.80;;;;;;5154668;27;20211;-78
2023/03/27 11:29:55;;;;;;;5.30;2.40;;;18.40;44.80;;;;;;5154751;27;20221;-79
2023/03/27 11:32:32;;;;;;;8.20;2.10;;;18.40;44.90;;;;;;5153769;27;20186;-79
2023/03/27 11:35:07;;;;;;;5.65;2.42;;;18.40;44.90;;;;;;5154587;27;20221;-79
2023/03/27 11:37:43;;;;;;;4.07;2.05;;;18.40;44.80;;;;;;5154280;27;20183;-78
2023/03/27 11:40:21;;;;;;;5.13;2.00;;;18.40;44.80;;;;;;5154567;27;20688;-73
2023/03/27 11:42:49;;;;;;;4.57;2.45;;;18.40;44.80;;;;;;5154490;27;20206;-79
2023/03/27 11:45:20;;;;;;;3.05;2.08;;;18.40;44.80;;;;;;5154594;27;20199;-78
2023/03/27 11:48:09;;;;;;;3.55;1.90;;;18.40;44.80;;;;;;5154509;27;20200;-79
2023/03/27 11:50:47;;;;;;;4.43;2.00;;;18.40;44.80;;;;;;5153852;27;20196;-79
2023/03/27 11:53:31;;;;;;;3.17;1.92;;;18.40;44.80;;;;;;5154282;27;20317;-79
2023/03/27 11:56:12;;;;;;;3.92;1.92;;;18.40;44.80;;;;;;5153907;27;20187;-78
2023/03/27 11:58:51;;;;;;;4.10;2.13;;;18.40;44.80;;;;;;5153841;27;20697;-79
2023/03/27 12:01:25;;;;;;;4.65;2.40;;;18.40;44.70;;;;;;5154134;27;20187;-79
2023/03/27 12:04:18;;;;;;;6.60;2.47;;;18.40;44.70;;;;;;5153938;27;20310;-78
2023/03/27 12:06:55;;;;;;;3.92;2.35;;;18.40;44.60;;;;;;5154187;27;20233;-78
2023/03/27 12:09:41;;;;;;;4.03;2.20;;;18.40;44.60;;;;;;5154234;27;20222;-79
2023/03/27 12:12:26;;;;;;;3.95;1.88;;;18.40;44.50;;;;;;5154109;27;20187;-79
2023/03/27 12:15:08;;;;;;;4.20;1.85;;;18.40;44.60;;;;;;5153743;27;20646;-79
2023/03/27 12:17:56;;;;;;;4.15;2.00;;;18.40;44.50;;;;;;5154023;27;20266;-78
2023/03/27 12:21:02;;;;;;;3.65;2.00;;;18.40;44.50;;;;;;5153931;27;20237;-79
2023/03/27 12:23:53;;;;;;;3.83;2.05;;;18.40;44.50;;;;;;5153596;27;20215;-78
2023/03/27 12:26:36;;;;;;;5.53;2.20;;;18.40;44.50;;;;;;5153634;27;20653;-78
2023/03/27 12:29:22;;;;;;;4.93;2.10;;;18.40;44.50;;;;;;5153792;27;20211;-79
2023/03/27 12:32:04;;;;;;;6.20;2.58;;;18.40;44.50;;;;;;5153885;27;20184;-78
2023/03/27 12:34:48;;;;;;;4.53;2.25;;;18.40;44.50;;;;;;5153450;27;20253;-79
2023/03/27 12:37:18;;;;;;;5.05;2.17;;;18.40;44.40;;;;;;5154255;27;20188;-78
2023/03/27 12:39:49;;;;;;;3.13;2.00;;;18.40;44.40;;;;;;5153913;27;20219;-78
2023/03/27 12:42:50;;;;;;;3.17;1.70;;;18.40;44.40;;;;;;5154176;27;20188;-79
2023/03/27 12:45:21;;;;;;;5.13;2.10;;;18.40;44.30;;;;;;5157980;27;20297;-79
2023/03/27 12:48:17;;;;;;;4.10;1.73;;;18.40;44.30;;;;;;5157793;27;20195;-78
2023/03/27 12:50:55;;;;;;;4.75;2.22;;;18.40;44.30;;;;;;5157882;27;20192;-79
2023/03/27 12:53:50;;;;;;;5.28;2.10;;;18.40;44.30;;;;;;5157724;27;20223;-78
2023/03/27 12:56:36;;;;;;;2.60;1.75;;;18.40;44.30;;;;;;5109596;27;20207;-76
2023/03/27 12:59:22;;;;;;;4.03;1.73;;;18.40;44.30;;;;;;5157762;27;20242;-78
2023/03/27 13:02:24;;;;;;;2.83;2.00;;;18.40;44.30;;;;;;5157383;27;20195;-77
2023/03/27 13:05:09;;;;;;;4.47;1.75;;;18.40;44.30;;;;;;5156749;27;20226;-79
2023/03/27 13:07:43;;;;;;;3.42;1.70;;;18.40;44.30;;;;;;5157179;27;20222;-79
2023/03/27 13:10:25;;;;;;;4.55;1.88;;;18.40;44.30;;;;;;5157566;27;20620;-79
2023/03/27 13:13:08;;;;;;;5.97;2.00;;;18.40;44.30;;;;;;5104165;27;20191;-78